createdAt,value
2017-10-30T00:01:53.286Z,3.90
2017-10-30T00:04:19.487Z,4.37
2017-10-30T00:06:45.744Z,3.57
2017-10-30T00:09:12.701Z,4.10
2017-10-30T00:11:39.614Z,4.13
2017-10-30T00:14:05.830Z,3.23
2017-10-30T00:16:32.056Z,3.73
2017-10-30T00:18:58.252Z,3.63
2017-10-30T00:21:25.202Z,4.10
2017-10-30T00:23:52.153Z,4.90
2017-10-30T00:26:18.318Z,3.30
2017-10-30T00:28:45.378Z,2.73
2017-10-30T00:31:11.545Z,3.13
2017-10-30T00:33:37.730Z,2.80
2017-10-30T00:36:04.709Z,3.20
2017-10-30T00:38:30.899Z,4.00
2017-10-30T00:40:57.845Z,3.23
2017-10-30T00:43:24.035Z,3.23
2017-10-30T00:45:50.224Z,3.83
2017-10-30T00:48:17.181Z,3.30
2017-10-30T00:50:43.408Z,3.73
2017-10-30T00:53:10.365Z,3.87
2017-10-30T00:55:37.292Z,3.23
2017-10-30T00:58:04.253Z,3.97
2017-10-30T01:00:31.179Z,3.40
2017-10-30T01:02:57.606Z,4.00
2017-10-30T01:05:23.830Z,2.60
2017-10-30T01:07:50.021Z,3.00
2017-10-30T01:10:16.176Z,3.80
2017-10-30T01:12:42.425Z,3.73
2017-10-30T01:15:08.662Z,3.23
2017-10-30T01:17:34.907Z,2.90
2017-10-30T01:20:01.119Z,4.17
2017-10-30T01:22:27.323Z,3.13
2017-10-30T01:24:54.258Z,3.80
2017-10-30T01:27:20.474Z,2.73
2017-10-30T01:29:46.654Z,4.93
2017-10-30T01:32:13.578Z,3.40
2017-10-30T01:34:39.791Z,2.77
2017-10-30T01:37:05.998Z,3.93
2017-10-30T01:39:32.222Z,3.33
2017-10-30T01:41:58.435Z,4.23
2017-10-30T01:44:25.394Z,2.30
2017-10-30T01:46:51.602Z,2.80
2017-10-30T01:49:17.826Z,2.70
2017-10-30T01:51:44.023Z,2.80
2017-10-30T01:54:10.208Z,2.37
2017-10-30T01:56:37.196Z,2.80
2017-10-30T01:59:03.383Z,3.13
2017-10-30T02:01:29.616Z,2.80
2017-10-30T02:03:56.025Z,3.77
2017-10-30T02:06:22.225Z,2.57
2017-10-30T02:08:49.146Z,2.83
2017-10-30T02:11:16.115Z,1.87
2017-10-30T02:13:43.072Z,2.37
2017-10-30T02:16:09.983Z,2.70
2017-10-30T02:18:36.205Z,2.70
2017-10-30T02:21:02.394Z,2.63
2017-10-30T02:23:28.594Z,1.50
2017-10-30T02:25:54.823Z,2.40
2017-10-30T02:28:21.057Z,2.43
2017-10-30T02:30:47.284Z,1.80
2017-10-30T02:33:13.513Z,1.73
2017-10-30T02:35:40.534Z,2.80
2017-10-30T02:38:06.746Z,3.30
2017-10-30T02:40:32.999Z,1.93
2017-10-30T02:42:59.178Z,2.10
2017-10-30T02:45:25.363Z,2.53
2017-10-30T02:47:51.614Z,2.00
2017-10-30T02:50:17.794Z,2.30
2017-10-30T02:52:44.723Z,2.33
2017-10-30T02:55:10.906Z,2.03
2017-10-30T02:57:37.058Z,2.10
2017-10-30T03:00:03.237Z,2.20
2017-10-30T03:02:29.426Z,2.47
2017-10-30T03:04:55.669Z,2.20
2017-10-30T03:07:21.847Z,2.20
2017-10-30T03:09:48.051Z,1.93
2017-10-30T03:12:14.229Z,1.73
2017-10-30T03:14:40.413Z,1.20
2017-10-30T03:17:06.674Z,2.20
2017-10-30T03:19:33.641Z,1.60
2017-10-30T03:22:00.578Z,2.00
2017-10-30T03:24:26.805Z,2.37
2017-10-30T03:26:53.705Z,1.87
2017-10-30T03:29:19.890Z,1.63
2017-10-30T03:31:46.865Z,2.20
2017-10-30T03:34:13.815Z,1.80
2017-10-30T03:36:40.750Z,2.57
2017-10-30T03:39:07.717Z,2.37
2017-10-30T03:41:34.654Z,1.60
2017-10-30T03:44:00.826Z,1.70
2017-10-30T03:46:27.765Z,2.63
2017-10-30T03:48:53.945Z,2.47
2017-10-30T03:51:20.102Z,1.70
2017-10-30T03:53:46.314Z,2.10
2017-10-30T03:56:12.526Z,1.83
2017-10-30T03:58:38.746Z,1.90
2017-10-30T04:01:05.686Z,2.27
2017-10-30T04:03:32.610Z,2.43
2017-10-30T04:05:59.654Z,2.40
2017-10-30T04:08:26.639Z,1.70
2017-10-30T04:10:52.846Z,2.33
2017-10-30T04:13:19.089Z,1.80
2017-10-30T04:15:46.071Z,1.63
2017-10-30T04:18:12.250Z,1.83
2017-10-30T04:20:38.430Z,1.73
2017-10-30T04:23:04.680Z,1.80
2017-10-30T04:25:30.866Z,1.23
2017-10-30T04:27:57.090Z,1.40
2017-10-30T04:30:23.285Z,2.33
2017-10-30T04:32:49.475Z,2.03
2017-10-30T04:35:16.395Z,1.73
2017-10-30T04:37:42.617Z,1.77
2017-10-30T04:40:08.785Z,1.70
2017-10-30T04:42:34.955Z,1.97
2017-10-30T04:45:01.157Z,1.60
2017-10-30T04:47:28.104Z,1.40
2017-10-30T04:49:55.054Z,1.50
2017-10-30T04:52:21.999Z,1.77
2017-10-30T04:54:49.674Z,1.40
2017-10-30T04:57:15.888Z,1.10
2017-10-30T04:59:42.126Z,1.87
2017-10-30T05:02:09.050Z,1.97
2017-10-30T05:04:35.257Z,2.80
2017-10-30T05:07:03.173Z,1.40
2017-10-30T05:09:29.354Z,1.83
2017-10-30T05:11:56.294Z,1.60
2017-10-30T05:14:22.586Z,1.40
2017-10-30T05:16:48.777Z,1.13
2017-10-30T05:19:15.730Z,1.60
2017-10-30T05:21:41.922Z,1.20
2017-10-30T05:24:08.117Z,1.60
2017-10-30T05:26:34.274Z,1.63
2017-10-30T05:29:00.462Z,1.73
2017-10-30T05:31:26.637Z,1.93
2017-10-30T05:33:52.813Z,1.20
2017-10-30T05:36:19.789Z,1.70
2017-10-30T05:38:46.690Z,1.70
2017-10-30T05:41:12.874Z,2.40
2017-10-30T05:43:40.820Z,1.67
2017-10-30T05:46:07.748Z,1.60
2017-10-30T05:48:33.940Z,1.60
2017-10-30T05:51:00.125Z,1.50
2017-10-30T05:53:26.322Z,1.83
2017-10-30T05:55:52.504Z,2.70
2017-10-30T05:58:18.693Z,2.13
2017-10-30T06:00:44.877Z,1.83
2017-10-30T06:03:11.073Z,1.50
2017-10-30T06:05:38.035Z,1.30
2017-10-30T06:08:04.521Z,1.60
2017-10-30T06:10:30.721Z,1.77
2017-10-30T06:12:56.898Z,2.33
2017-10-30T06:15:23.100Z,1.87
2017-10-30T06:17:50.050Z,2.07
2017-10-30T06:20:16.985Z,1.40
2017-10-30T06:22:43.184Z,2.60
2017-10-30T06:25:09.366Z,2.03
2017-10-30T06:27:36.344Z,1.63
2017-10-30T06:30:02.548Z,1.30
2017-10-30T06:32:28.723Z,1.90
2017-10-30T06:34:54.959Z,1.77
2017-10-30T06:37:21.126Z,1.90
2017-10-30T06:39:47.337Z,2.40
2017-10-30T06:42:13.556Z,3.00
2017-10-30T06:44:39.795Z,2.83
2017-10-30T06:47:06.014Z,1.67
2017-10-30T06:49:32.234Z,1.53
2017-10-30T06:51:59.172Z,2.00
2017-10-30T06:54:25.418Z,1.30
2017-10-30T06:56:52.363Z,1.40
2017-10-30T06:59:18.605Z,1.30
2017-10-30T07:01:45.553Z,1.70
2017-10-30T07:04:11.781Z,1.27
2017-10-30T07:06:38.806Z,1.37
2017-10-30T07:09:05.182Z,1.27
2017-10-30T07:11:31.415Z,1.53
2017-10-30T07:13:57.598Z,1.20
2017-10-30T07:16:23.759Z,1.70
2017-10-30T07:18:50.058Z,1.17
2017-10-30T07:21:16.282Z,1.70
2017-10-30T07:23:42.446Z,1.53
2017-10-30T07:26:08.636Z,1.83
2017-10-30T07:28:34.850Z,2.80
2017-10-30T07:31:01.787Z,1.90
2017-10-30T07:33:28.021Z,1.80
2017-10-30T07:35:54.965Z,1.20
2017-10-30T07:38:21.138Z,1.43
2017-10-30T07:40:47.328Z,1.37
2017-10-30T07:43:13.509Z,1.70
2017-10-30T07:45:39.725Z,1.43
2017-10-30T07:48:06.661Z,2.17
2017-10-30T07:50:32.862Z,1.50
2017-10-30T07:52:59.017Z,1.90
2017-10-30T07:55:25.220Z,2.03
2017-10-30T07:57:51.389Z,1.87
2017-10-30T08:00:17.570Z,1.40
2017-10-30T08:02:43.768Z,1.50
2017-10-30T08:05:10.685Z,1.60
2017-10-30T08:07:37.609Z,1.57
2017-10-30T08:10:03.893Z,2.03
2017-10-30T08:12:30.846Z,1.37
2017-10-30T08:14:57.761Z,1.40
2017-10-30T08:17:23.952Z,2.73
2017-10-30T08:19:50.154Z,1.73
2017-10-30T08:22:16.358Z,1.57
2017-10-30T08:24:42.573Z,1.47
2017-10-30T08:27:08.770Z,1.60
2017-10-30T08:29:35.682Z,1.40
2017-10-30T08:32:01.901Z,1.10
2017-10-30T08:34:28.089Z,1.27
2017-10-30T08:36:55.014Z,1.30
2017-10-30T08:39:21.231Z,2.57
2017-10-30T08:41:47.411Z,3.03
2017-10-30T08:44:14.345Z,1.80
2017-10-30T08:46:41.313Z,1.80
2017-10-30T08:49:07.559Z,2.20
2017-10-30T08:51:34.475Z,5.90
2017-10-30T08:54:00.670Z,1.70
2017-10-30T08:56:26.849Z,2.23
2017-10-30T08:58:53.130Z,1.80
2017-10-30T09:01:19.382Z,1.67
2017-10-30T09:03:45.562Z,1.73
2017-10-30T09:06:12.510Z,1.50
2017-10-30T09:08:39.483Z,1.97
2017-10-30T09:11:06.601Z,2.30
2017-10-30T09:13:32.799Z,1.40
2017-10-30T09:15:59.009Z,1.40
2017-10-30T09:18:25.221Z,1.80
2017-10-30T09:20:51.429Z,1.27
2017-10-30T09:23:17.610Z,1.70
2017-10-30T09:25:43.842Z,1.40
2017-10-30T09:28:10.129Z,1.80
2017-10-30T09:30:37.148Z,1.53
2017-10-30T09:33:03.338Z,1.93
2017-10-30T09:35:29.522Z,1.53
2017-10-30T09:37:55.764Z,1.83
2017-10-30T09:40:21.944Z,1.10
2017-10-30T09:42:48.866Z,1.13
2017-10-30T09:45:15.102Z,2.20
2017-10-30T09:47:41.296Z,1.27
2017-10-30T09:50:07.506Z,1.33
2017-10-30T09:52:33.728Z,1.60
2017-10-30T09:55:00.656Z,1.80
2017-10-30T09:57:26.870Z,1.20
2017-10-30T09:59:53.080Z,1.07
2017-10-30T10:02:19.274Z,1.50
2017-10-30T10:04:46.199Z,1.40
2017-10-30T10:07:12.397Z,1.00
2017-10-30T10:09:38.565Z,1.83
2017-10-30T10:12:04.825Z,1.63
2017-10-30T10:14:31.813Z,1.00
2017-10-30T10:16:58.041Z,1.70
2017-10-30T10:19:24.229Z,1.40
2017-10-30T10:21:50.435Z,1.27
2017-10-30T10:24:16.626Z,1.67
2017-10-30T10:26:43.569Z,1.97
2017-10-30T10:29:10.522Z,1.40
2017-10-30T10:31:37.457Z,1.20
2017-10-30T10:34:04.415Z,1.70
2017-10-30T10:36:30.634Z,1.13
2017-10-30T10:38:56.806Z,1.10
2017-10-30T10:41:22.988Z,1.30
2017-10-30T10:43:49.188Z,1.07
2017-10-30T10:46:15.463Z,1.17
2017-10-30T10:48:41.674Z,1.97
2017-10-30T10:51:07.888Z,1.23
2017-10-30T10:53:34.062Z,1.27
2017-10-30T10:56:00.240Z,1.77
2017-10-30T10:58:27.186Z,1.10
2017-10-30T11:00:54.118Z,1.57
2017-10-30T11:03:21.062Z,0.90
2017-10-30T11:05:47.277Z,1.10
2017-10-30T11:08:13.457Z,1.13
2017-10-30T11:10:40.349Z,1.13
2017-10-30T11:13:06.681Z,0.80
2017-10-30T11:15:32.862Z,1.00
2017-10-30T11:17:59.799Z,1.37
2017-10-30T11:20:26.762Z,1.53
2017-10-30T11:22:53.720Z,1.03
2017-10-30T11:25:20.643Z,1.20
2017-10-30T11:27:46.861Z,1.17
2017-10-30T11:30:13.054Z,1.17
2017-10-30T11:32:39.962Z,1.10
2017-10-30T11:35:06.186Z,0.80
2017-10-30T11:37:32.370Z,2.53
2017-10-30T11:39:58.570Z,2.97
2017-10-30T11:42:24.789Z,2.13
2017-10-30T11:44:51.005Z,1.00
2017-10-30T11:47:17.206Z,1.10
2017-10-30T11:49:43.432Z,1.40
2017-10-30T11:52:10.364Z,1.03
2017-10-30T11:54:36.560Z,1.37
2017-10-30T11:57:02.754Z,1.20
2017-10-30T11:59:29.668Z,1.07
2017-10-30T12:01:55.885Z,1.37
2017-10-30T12:04:22.148Z,0.90
2017-10-30T12:06:48.319Z,1.23
2017-10-30T12:09:15.269Z,1.20
2017-10-30T12:11:41.492Z,0.93
2017-10-30T12:14:08.499Z,1.30
2017-10-30T12:16:34.707Z,1.20
2017-10-30T12:19:00.910Z,1.10
2017-10-30T12:21:27.842Z,2.37
2017-10-30T12:23:54.029Z,1.10
2017-10-30T12:26:20.231Z,1.77
2017-10-30T12:28:47.292Z,1.60
2017-10-30T12:31:13.663Z,1.33
2017-10-30T12:33:39.870Z,1.47
2017-10-30T12:36:06.777Z,2.23
2017-10-30T12:38:33.741Z,1.40
2017-10-30T12:40:59.962Z,2.80
2017-10-30T12:43:26.153Z,1.60
2017-10-30T12:45:52.358Z,1.80
2017-10-30T12:48:19.350Z,1.10
2017-10-30T12:50:45.546Z,1.10
2017-10-30T12:53:11.721Z,1.20
2017-10-30T12:55:38.709Z,2.03
2017-10-30T12:58:04.878Z,2.10
2017-10-30T13:00:31.095Z,1.93
2017-10-30T13:02:58.022Z,1.37
2017-10-30T13:05:24.993Z,1.30
2017-10-30T13:07:51.208Z,1.20
2017-10-30T13:10:17.440Z,2.03
2017-10-30T13:12:43.647Z,1.60
2017-10-30T13:15:09.908Z,2.13
2017-10-30T13:17:36.115Z,1.30
2017-10-30T13:20:02.314Z,1.20
2017-10-30T13:22:28.529Z,1.20
2017-10-30T13:24:55.536Z,2.13
2017-10-30T13:27:21.714Z,2.20
2017-10-30T13:29:48.690Z,1.43
2017-10-30T13:32:14.911Z,1.50
2017-10-30T13:34:41.114Z,1.30
2017-10-30T13:37:07.308Z,1.47
2017-10-30T13:39:33.520Z,1.93
2017-10-30T13:42:00.430Z,1.57
2017-10-30T13:44:26.650Z,1.50
2017-10-30T13:46:52.874Z,1.60
2017-10-30T13:49:19.061Z,1.23
2017-10-30T13:51:45.274Z,1.40
2017-10-30T13:54:12.309Z,1.63
2017-10-30T13:56:38.508Z,1.80
2017-10-30T13:59:04.689Z,1.80
2017-10-30T14:01:30.880Z,1.90
2017-10-30T14:03:57.045Z,1.90
2017-10-30T14:06:23.259Z,1.60
2017-10-30T14:08:49.497Z,1.73
2017-10-30T14:11:15.742Z,1.33
2017-10-30T14:13:41.913Z,1.67
2017-10-30T14:16:08.274Z,1.20
2017-10-30T14:18:35.182Z,1.50
2017-10-30T14:21:01.397Z,1.30
2017-10-30T14:23:27.577Z,1.90
2017-10-30T14:25:54.541Z,1.47
2017-10-30T14:28:21.476Z,3.20
2017-10-30T14:30:47.711Z,1.93
2017-10-30T14:33:13.910Z,1.53
2017-10-30T14:35:40.119Z,2.70
2017-10-30T14:38:06.376Z,1.80
2017-10-30T14:40:32.546Z,1.47
2017-10-30T14:42:59.512Z,1.70
2017-10-30T14:45:26.497Z,1.77
2017-10-30T14:47:52.697Z,2.60
2017-10-30T14:50:19.658Z,1.57
2017-10-30T14:52:45.929Z,1.30
2017-10-30T14:55:12.088Z,2.33
2017-10-30T14:57:38.259Z,1.87
2017-10-30T15:00:04.532Z,1.80
2017-10-30T15:02:30.806Z,2.20
2017-10-30T15:04:57.733Z,2.30
2017-10-30T15:07:24.023Z,1.90
2017-10-30T15:09:50.225Z,3.13
2017-10-30T15:12:17.198Z,1.70
2017-10-30T15:14:43.439Z,2.20
2017-10-30T15:17:09.722Z,2.50
2017-10-30T15:19:35.933Z,2.80
2017-10-30T15:22:02.123Z,2.23
2017-10-30T15:24:29.048Z,2.13
2017-10-30T15:26:55.243Z,2.53
2017-10-30T15:29:21.431Z,2.03
2017-10-30T15:31:47.639Z,1.80
2017-10-30T15:34:13.846Z,2.43
2017-10-30T15:36:40.056Z,1.90
2017-10-30T15:39:06.953Z,2.00
2017-10-30T15:41:33.137Z,1.60
2017-10-30T15:44:00.082Z,1.90
2017-10-30T15:46:27.014Z,2.20
2017-10-30T15:48:53.206Z,2.13
2017-10-30T15:51:19.419Z,2.40
2017-10-30T15:53:45.601Z,2.47
2017-10-30T15:56:11.829Z,1.70
2017-10-30T15:58:38.002Z,1.67
2017-10-30T16:01:04.231Z,3.13
2017-10-30T16:03:31.177Z,2.00
2017-10-30T16:05:57.421Z,1.80
2017-10-30T16:08:24.358Z,1.70
2017-10-30T16:10:51.308Z,1.77
2017-10-30T16:13:17.522Z,2.40
2017-10-30T16:15:43.714Z,2.50
2017-10-30T16:18:09.978Z,2.00
2017-10-30T16:20:36.215Z,1.43
2017-10-30T16:23:02.402Z,2.27
2017-10-30T16:25:28.597Z,1.83
2017-10-30T16:27:54.822Z,2.10
2017-10-30T16:30:21.035Z,2.50
2017-10-30T16:32:47.221Z,3.50
2017-10-30T16:35:14.167Z,3.60
2017-10-30T16:37:41.127Z,1.70
2017-10-30T16:40:08.053Z,1.90
2017-10-30T16:42:34.228Z,2.13
2017-10-30T16:45:01.209Z,2.67
2017-10-30T16:47:27.434Z,2.57
2017-10-30T16:49:53.638Z,2.60
2017-10-30T16:52:20.569Z,1.80
2017-10-30T16:54:46.741Z,2.67
2017-10-30T16:57:13.025Z,3.00
2017-10-30T16:59:39.197Z,2.60
2017-10-30T17:02:05.422Z,3.13
2017-10-30T17:04:32.415Z,3.00
2017-10-30T17:06:58.685Z,2.30
2017-10-30T17:09:24.924Z,3.40
2017-10-30T17:11:51.110Z,2.30
2017-10-30T17:14:17.281Z,2.63
2017-10-30T17:16:43.489Z,3.37
2017-10-30T17:19:09.778Z,2.60
2017-10-30T17:21:36.715Z,2.83
2017-10-30T17:24:12.902Z,3.10
2017-10-30T17:26:39.837Z,2.70
2017-10-30T17:29:06.077Z,2.23
2017-10-30T17:31:33.068Z,2.97
2017-10-30T17:33:59.269Z,3.40
2017-10-30T17:36:25.473Z,3.00
2017-10-30T17:38:51.792Z,2.53
2017-10-30T17:41:18.009Z,3.53
2017-10-30T17:43:44.205Z,3.80
2017-10-30T17:46:10.433Z,3.57
2017-10-30T17:48:37.450Z,3.23
2017-10-30T17:51:03.659Z,3.67
2017-10-30T17:53:29.952Z,3.80
2017-10-30T17:55:56.180Z,4.43
2017-10-30T17:58:22.374Z,3.80
2017-10-30T18:00:49.473Z,3.40
2017-10-30T18:03:15.706Z,3.00
2017-10-30T18:05:42.631Z,4.50
2017-10-30T18:08:08.858Z,3.43
2017-10-30T18:10:35.056Z,3.00
2017-10-30T18:13:01.257Z,3.20
2017-10-30T18:15:29.093Z,2.47
2017-10-30T18:17:55.411Z,3.40
2017-10-30T18:20:21.836Z,3.57
2017-10-30T18:22:48.048Z,2.23
2017-10-30T18:25:14.265Z,3.20
2017-10-30T18:27:41.192Z,2.40
2017-10-30T18:30:07.477Z,3.03
2017-10-30T18:32:33.725Z,2.90
2017-10-30T18:34:59.933Z,2.37
2017-10-30T18:37:27.777Z,2.53
2017-10-30T18:39:53.965Z,2.73
2017-10-30T18:42:20.160Z,3.40
2017-10-30T18:44:46.362Z,4.30
2017-10-30T18:47:12.585Z,4.60
2017-10-30T18:49:38.748Z,2.90
2017-10-30T18:52:04.946Z,3.33
2017-10-30T18:54:31.149Z,3.23
2017-10-30T18:56:57.350Z,2.43
2017-10-30T18:59:23.551Z,4.07
2017-10-30T19:01:49.755Z,4.27
2017-10-30T19:04:16.027Z,2.73
2017-10-30T19:06:42.248Z,2.67
2017-10-30T19:09:08.501Z,2.37
2017-10-30T19:11:34.698Z,3.00
2017-10-30T19:14:00.917Z,3.13
2017-10-30T19:16:27.124Z,3.10
2017-10-30T19:18:54.087Z,3.30
2017-10-30T19:21:20.500Z,2.90
2017-10-30T19:23:46.793Z,3.60
2017-10-30T19:26:12.997Z,2.80
2017-10-30T19:28:39.262Z,2.67
2017-10-30T19:31:05.483Z,2.80
2017-10-30T19:33:31.737Z,2.47
2017-10-30T19:35:57.937Z,2.83
2017-10-30T19:38:24.849Z,2.20
2017-10-30T19:40:51.030Z,2.87
2017-10-30T19:43:17.988Z,3.23
2017-10-30T19:45:44.915Z,3.10
2017-10-30T19:48:11.106Z,4.33
2017-10-30T19:50:37.368Z,3.40
2017-10-30T19:53:04.318Z,2.70
2017-10-30T19:55:30.515Z,3.47
2017-10-30T19:57:56.762Z,3.77
2017-10-30T20:00:22.941Z,4.43
2017-10-30T20:02:49.184Z,4.10
2017-10-30T20:05:22.270Z,2.97
2017-10-30T20:07:53.318Z,4.10
2017-10-30T20:10:25.518Z,3.10
2017-10-30T20:12:51.697Z,3.17
2017-10-30T20:15:17.973Z,3.07
2017-10-30T20:17:44.187Z,3.17
2017-10-30T20:20:10.437Z,3.30
2017-10-30T20:22:36.704Z,2.83
2017-10-30T20:25:02.929Z,3.23
2017-10-30T20:27:29.124Z,3.50
2017-10-30T20:29:56.044Z,3.20
2017-10-30T20:32:22.284Z,3.00
2017-10-30T20:34:49.241Z,3.20
2017-10-30T20:37:15.528Z,3.37
2017-10-30T20:39:41.795Z,2.97
2017-10-30T20:42:08.729Z,4.00
2017-10-30T20:44:34.914Z,4.50
2017-10-30T20:47:01.233Z,5.43
2017-10-30T20:49:28.190Z,4.47
2017-10-30T20:51:54.370Z,3.40
2017-10-30T20:54:20.619Z,2.77
2017-10-30T20:56:46.809Z,3.07
2017-10-30T20:59:13.744Z,2.83
2017-10-30T21:01:39.989Z,3.20
2017-10-30T21:04:06.936Z,2.90
2017-10-30T21:06:33.136Z,3.50
2017-10-30T21:08:59.342Z,3.00
2017-10-30T21:11:25.542Z,3.90
2017-10-30T21:13:51.787Z,3.37
2017-10-30T21:16:18.007Z,3.50
2017-10-30T21:18:45.088Z,2.90
2017-10-30T21:21:11.351Z,2.10
2017-10-30T21:23:38.421Z,3.67
2017-10-30T21:26:04.770Z,3.07
2017-10-30T21:28:31.722Z,2.70
2017-10-30T21:30:57.917Z,2.60
2017-10-30T21:33:24.129Z,3.23
2017-10-30T21:35:50.413Z,3.03
2017-10-30T21:38:16.607Z,2.83
2017-10-30T21:40:42.793Z,2.90
2017-10-30T21:43:09.018Z,3.77
2017-10-30T21:45:35.213Z,3.60
2017-10-30T21:48:01.412Z,2.70
2017-10-30T21:50:28.387Z,2.70
2017-10-30T21:52:54.581Z,2.40
2017-10-30T21:55:20.786Z,2.70
2017-10-30T21:57:46.975Z,2.47
2017-10-30T22:00:13.927Z,2.20
2017-10-30T22:02:40.847Z,2.13
2017-10-30T22:05:07.079Z,2.50
2017-10-30T22:07:33.260Z,1.60
2017-10-30T22:09:59.470Z,2.10
2017-10-30T22:12:25.638Z,3.07
2017-10-30T22:14:51.824Z,3.17
2017-10-30T22:17:18.800Z,2.60
2017-10-30T22:19:44.985Z,2.20
2017-10-30T22:22:11.214Z,2.10
2017-10-30T22:24:37.481Z,2.37
2017-10-30T22:27:03.682Z,2.00
2017-10-30T22:29:29.908Z,3.37
2017-10-30T22:31:56.123Z,2.50
2017-10-30T22:34:22.324Z,2.70
2017-10-30T22:36:48.555Z,2.33
2017-10-30T22:39:14.786Z,2.43
2017-10-30T22:41:41.078Z,2.50
2017-10-30T22:44:07.309Z,1.70
2017-10-30T22:46:33.528Z,2.60
2017-10-30T22:48:59.706Z,1.80
2017-10-30T22:51:25.970Z,2.33
2017-10-30T22:53:52.908Z,2.07
2017-10-30T22:56:19.862Z,1.77
2017-10-30T22:58:46.818Z,2.13
2017-10-30T23:01:13.154Z,2.13
2017-10-30T23:03:40.085Z,2.20
2017-10-30T23:06:06.289Z,2.43
2017-10-30T23:08:32.469Z,1.90
2017-10-30T23:10:58.645Z,2.43
2017-10-30T23:13:24.854Z,2.40
2017-10-30T23:15:51.832Z,3.43
2017-10-30T23:18:18.225Z,1.87
2017-10-30T23:20:44.424Z,3.03
2017-10-30T23:23:10.628Z,1.93
2017-10-30T23:25:37.110Z,2.43
2017-10-30T23:28:03.337Z,2.40
2017-10-30T23:30:29.506Z,1.70
2017-10-30T23:32:56.441Z,2.00
2017-10-30T23:35:22.691Z,2.30
2017-10-30T23:37:49.630Z,1.90
2017-10-30T23:40:15.809Z,2.07
2017-10-30T23:42:42.026Z,2.10
2017-10-30T23:45:08.219Z,1.90
2017-10-30T23:47:34.423Z,3.07
2017-10-30T23:50:00.630Z,3.17
2017-10-30T23:52:26.894Z,3.37
2017-10-30T23:54:53.141Z,3.30
2017-10-30T23:57:19.362Z,2.73
2017-10-30T23:59:45.564Z,3.70
